FAUT

K. D. Matanzima Airport

Mthatha, South Africa
METAR FAUT 221400Z 11011KT CAVOK 24/05 Q1027
Observed Flight Rules
Oct-22 @ 14:00 UTC (26 minutes ago) Visual Flight Rules
Wind Visibility Clouds
110° at 11 knots 10,000+ meters
  • Clear skies
Temperatures Readings
Current 24°C / 75°F
Dewpoint 5°C / 41°F
Humidity 29%
Altimeter 30.32" Hg
Pressure 1027 hPa
Elevation 732
METAR FAUT 221400Z 11011KT CAVOK 24/05 Q1027
Observed Flight Rules
Oct-22 @ 14:00 UTC
(26 minutes ago)
VFR
Wind Visibility
110° at 11 knots 10,000+ meters
Clouds
  • Clear skies
Temperature Dewpoint
24°C / 75°F 5°C / 41°F
Humidity Altimeter Pressure
29% 30.32" Hg 1027 hPa